Time;durP1;ratioP1;P1;durP2;ratioP2;P2;SDS_P1;SDS_P2;PMS_P1;PMS_P2;Temp;Humidity;BMP_temperature;BMP_pressure;BME280_temperature;BME280_humidity;BME280_pressure;Samples;Min_cycle;Max_cycle;Signal;HPM_P1;HPM_P2
2022/10/17 00:01:10;;;;;;;16.50;9.25;;;307.20;2304.00;;;;;;5007850;28;20040;-78
2022/10/17 00:03:37;;;;;;;18.33;9.80;;;307.20;2304.00;;;;;;5006419;28;20057;-78
2022/10/17 00:06:08;;;;;;;16.35;10.77;;;307.20;2304.00;;;;;;5011551;28;20104;-79
2022/10/17 00:08:35;;;;;;;18.23;10.73;;;307.20;2304.00;;;;;;5028291;28;20101;-78
2022/10/17 00:11:04;;;;;;;16.77;10.98;;;282.50;2278.40;;;;;;5013311;28;20442;-79
2022/10/17 00:13:30;;;;;;;18.02;10.40;;;282.50;2278.40;;;;;;5044245;28;20113;-79
2022/10/17 00:15:57;;;;;;;19.67;11.15;;;282.40;2278.40;;;;;;5007212;28;20492;-79
2022/10/17 00:18:23;;;;;;;19.77;10.50;;;282.40;2278.40;;;;;;5007015;28;20034;-79
2022/10/17 00:20:49;;;;;;;19.00;10.57;;;282.50;2278.40;;;;;;5008071;28;20029;-78
2022/10/17 00:23:14;;;;;;;18.40;10.55;;;307.20;2304.00;;;;;;5005514;28;20034;-79
2022/10/17 00:25:40;;;;;;;;;;;307.20;2304.00;;;;;;5007381;28;20056;-81
2022/10/17 00:28:08;;;;;;;20.90;9.80;;;307.20;2304.00;;;;;;5010945;28;19921;-79
2022/10/17 00:30:34;;;;;;;19.50;9.85;;;307.20;2304.00;;;;;;5008657;28;20018;-78
2022/10/17 00:33:00;;;;;;;17.00;9.05;;;307.30;2304.00;;;;;;5018819;28;20395;-79
2022/10/17 00:35:26;;;;;;;17.38;9.55;;;307.20;2304.00;;;;;;5007293;28;20022;-79
2022/10/17 00:37:51;;;;;;;15.88;9.52;;;307.20;2304.00;;;;;;5009610;28;20491;-79
2022/10/17 00:40:17;;;;;;;18.15;10.57;;;307.20;2304.00;;;;;;5010041;28;20112;-78
2022/10/17 00:42:43;;;;;;;16.50;10.05;;;282.50;2278.40;;;;;;5006559;28;20119;-80
2022/10/17 00:45:16;;;;;;;16.65;10.38;;;282.50;2278.40;;;;;;5007599;28;20021;-78
2022/10/17 00:47:47;;;;;;;16.70;10.45;;;282.50;2278.40;;;;;;5010560;28;20048;-79
2022/10/17 00:50:13;;;;;;;15.88;11.02;;;307.20;2304.00;;;;;;5007232;28;20112;-79
2022/10/17 00:52:39;;;;;;;15.43;10.70;;;307.20;2304.00;;;;;;5000369;28;20026;-78
2022/10/17 00:55:11;;;;;;;17.55;11.38;;;307.20;2304.00;;;;;;5005163;28;20126;-79
2022/10/17 00:57:38;;;;;;;17.08;10.63;;;307.20;2304.00;;;;;;5008075;28;20080;-78
2022/10/17 01:00:08;;;;;;;17.75;9.65;;;282.50;2278.40;;;;;;5002282;28;20073;-79
2022/10/17 01:02:33;;;;;;;15.45;10.07;;;282.50;2278.40;;;;;;5007434;28;20022;-79
2022/10/17 01:04:59;;;;;;;17.88;10.02;;;282.40;2278.40;;;;;;5010182;28;20100;-79
2022/10/17 01:07:27;;;;;;;21.27;10.95;;;282.40;2278.40;;;;;;5005389;28;20029;-80
2022/10/17 01:09:54;;;;;;;14.48;9.90;;;282.40;2278.40;;;;;;5024751;28;20049;-79
2022/10/17 01:12:25;;;;;;;18.90;10.10;;;282.40;2278.40;;;;;;5006020;28;20052;-79
2022/10/17 01:15:03;;;;;;;15.68;10.10;;;282.50;2278.40;;;;;;5036488;28;20475;-79
2022/10/17 01:18:05;;;;;;;20.60;9.70;;;282.40;2278.40;;;;;;5017467;28;20034;-78
2022/10/17 01:20:55;;;;;;;13.15;9.18;;;282.50;2278.40;;;;;;5023183;28;20120;-78
2022/10/17 01:23:48;;;;;;;17.30;9.60;;;282.50;2278.40;;;;;;5020332;28;20056;-81
2022/10/17 01:26:29;;;;;;;17.98;10.00;;;282.40;2278.40;;;;;;5001470;28;20080;-79
2022/10/17 01:29:19;;;;;;;14.13;9.93;;;282.40;2278.40;;;;;;5009824;28;20060;-79
2022/10/17 01:31:51;;;;;;;20.08;9.52;;;282.50;2278.40;;;;;;5017229;28;20026;-78
2022/10/17 01:34:49;;;;;;;17.85;10.38;;;282.40;2278.40;;;;;;5001151;28;20033;-79
2022/10/17 01:37:17;;;;;;;19.40;10.05;;;282.50;2278.40;;;;;;5000094;28;20467;-77
2022/10/17 01:39:52;;;;;;;17.98;10.48;;;307.30;2304.00;;;;;;5018473;28;20038;-79
2022/10/17 01:42:27;;;;;;;18.67;10.27;;;307.30;2304.00;;;;;;5006142;28;20032;-78
2022/10/17 01:44:56;;;;;;;18.90;10.65;;;307.30;2304.00;;;;;;5006247;28;20104;-79
2022/10/17 01:47:25;;;;;;;19.00;9.40;;;307.30;2304.00;;;;;;5028474;28;20060;-81
2022/10/17 01:49:54;;;;;;;19.90;9.95;;;307.30;2304.00;;;;;;5003243;28;20033;-80
2022/10/17 01:52:32;;;;;;;19.40;10.20;;;307.40;2304.00;;;;;;5003364;28;20029;-80
2022/10/17 01:55:07;;;;;;;17.70;9.82;;;307.50;2304.00;;;;;;5003391;28;20021;-80
2022/10/17 01:57:45;;;;;;;23.80;11.13;;;307.60;2304.00;;;;;;5011028;28;20029;-79
2022/10/17 02:00:17;;;;;;;14.90;10.02;;;307.70;2304.00;;;;;;5041182;28;20029;-79
2022/10/17 02:02:45;;;;;;;15.77;9.93;;;307.70;2304.00;;;;;;5004421;28;20487;-80
2022/10/17 02:05:11;;;;;;;20.25;10.38;;;307.70;2304.00;;;;;;5003576;28;20064;-78
2022/10/17 02:07:39;;;;;;;15.50;9.10;;;307.80;2304.00;;;;;;4996802;28;20042;-78
2022/10/17 02:10:14;;;;;;;20.50;9.90;;;307.80;2304.00;;;;;;5009147;28;20116;-78
2022/10/17 02:13:03;;;;;;;14.18;9.05;;;307.80;2304.00;;;;;;5009119;28;20052;-78
2022/10/17 02:16:11;;;;;;;14.38;8.70;;;307.90;2304.00;;;;;;5024197;28;20010;-79
2022/10/17 02:18:52;;;;;;;19.67;10.02;;;307.80;2304.00;;;;;;5011369;28;20014;-80
2022/10/17 02:21:30;;;;;;;16.20;10.73;;;307.60;2304.00;;;;;;5006052;28;20107;-79
2022/10/17 02:24:17;;;;;;;14.45;9.52;;;307.60;2304.00;;;;;;5005586;28;20045;-79
2022/10/17 02:26:49;;;;;;;10.55;7.45;;;307.70;2304.00;;;;;;5004051;28;20033;-79
2022/10/17 02:29:19;;;;;;;15.25;9.63;;;307.60;2304.00;;;;;;5008736;28;20037;-79
2022/10/17 02:31:54;;;;;;;14.70;10.10;;;307.60;2304.00;;;;;;4999923;28;20157;-79
2022/10/17 02:34:28;;;;;;;18.48;9.57;;;307.40;2304.00;;;;;;5000164;28;20117;-79
2022/10/17 02:36:59;;;;;;;11.32;9.00;;;307.40;2304.00;;;;;;5008043;28;20036;-79
2022/10/17 02:39:27;;;;;;;16.20;10.00;;;307.30;2304.00;;;;;;5010303;28;20136;-80
2022/10/17 02:41:57;;;;;;;17.02;10.15;;;307.20;2304.00;;;;;;5008943;28;20018;-79
2022/10/17 02:44:24;;;;;;;21.88;10.32;;;307.20;2304.00;;;;;;5008593;28;20052;-79
2022/10/17 02:46:58;;;;;;;16.88;9.30;;;282.50;2278.40;;;;;;5007598;28;20514;-79
2022/10/17 02:49:29;;;;;;;14.05;9.38;;;307.20;2304.00;;;;;;5011264;28;20041;-80
2022/10/17 02:52:02;;;;;;;13.10;8.65;;;282.50;2278.40;;;;;;5003294;28;20117;-79
2022/10/17 02:54:41;;;;;;;16.90;11.00;;;282.40;2278.40;;;;;;5028981;28;20519;-79
2022/10/17 02:57:25;;;;;;;17.17;10.43;;;282.40;2278.40;;;;;;5028216;28;20022;-79
2022/10/17 02:59:51;;;;;;;14.40;9.80;;;282.50;2278.40;;;;;;5007941;28;20040;-79
2022/10/17 03:02:17;;;;;;;15.10;9.25;;;282.50;2278.40;;;;;;5003467;28;20479;-79
2022/10/17 03:04:44;;;;;;;16.77;10.25;;;282.50;2278.40;;;;;;5009780;28;20461;-78
2022/10/17 03:07:10;;;;;;;16.17;10.48;;;282.50;2278.40;;;;;;5018075;28;20463;-79
2022/10/17 03:09:36;;;;;;;15.52;9.85;;;282.40;2278.40;;;;;;5006836;28;20025;-79
2022/10/17 03:12:01;;;;;;;23.83;10.88;;;282.40;2278.40;;;;;;5032692;28;20021;-79
2022/10/17 03:14:27;;;;;;;18.05;9.68;;;282.40;2278.40;;;;;;5009510;28;20036;-79
2022/10/17 03:16:53;;;;;;;;;;;282.40;2278.40;;;;;;5016754;28;20026;-79
2022/10/17 03:19:18;;;;;;;28.77;10.05;;;282.30;2278.40;;;;;;5026952;28;19905;-77
2022/10/17 03:21:44;;;;;;;;;;;282.20;2278.40;;;;;;5010200;28;20025;-79
2022/10/17 03:24:11;;;;;;;19.05;10.40;;;282.20;2278.40;;;;;;5007637;28;19905;-79
2022/10/17 03:26:36;;;;;;;15.48;9.82;;;282.00;2278.40;;;;;;5010977;28;20486;-79
2022/10/17 03:29:03;;;;;;;19.70;10.60;;;282.00;2278.40;;;;;;5006809;28;20041;-78
2022/10/17 03:31:28;;;;;;;17.00;10.48;;;281.90;2278.40;;;;;;5011947;28;20589;-79
2022/10/17 03:33:54;;;;;;;16.30;10.57;;;281.80;2278.40;;;;;;5006966;28;20037;-79
2022/10/17 03:36:20;;;;;;;;;;;281.90;2278.40;;;;;;5004423;28;20018;-80
2022/10/17 03:38:46;;;;;;;18.48;10.35;;;281.80;2278.40;;;;;;5011167;28;19913;-79
2022/10/17 03:41:12;;;;;;;19.23;11.25;;;281.90;2278.40;;;;;;5014886;28;20365;-79
2022/10/17 03:43:38;;;;;;;15.25;10.30;;;281.80;2278.40;;;;;;5009747;28;20387;-79
2022/10/17 03:46:05;;;;;;;19.92;11.32;;;281.80;2278.40;;;;;;5034376;28;20080;-78
2022/10/17 03:48:31;;;;;;;18.70;10.32;;;281.70;2278.40;;;;;;5026404;28;20113;-80
2022/10/17 03:51:00;;;;;;;14.15;10.13;;;281.70;2278.40;;;;;;5005842;28;20049;-79
2022/10/17 03:53:26;;;;;;;17.15;10.52;;;281.70;2278.40;;;;;;5017223;28;20095;-79
2022/10/17 03:55:51;;;;;;;16.65;10.02;;;281.80;2278.40;;;;;;5014789;28;20025;-79
2022/10/17 03:58:17;;;;;;;19.10;11.52;;;281.70;2278.40;;;;;;5011631;28;20021;-80
2022/10/17 04:00:43;;;;;;;18.88;10.73;;;281.70;2278.40;;;;;;5014314;28;20029;-77
2022/10/17 04:03:09;;;;;;;15.60;9.88;;;281.70;2278.40;;;;;;5010729;28;20083;-79
2022/10/17 04:05:34;;;;;;;;;;;281.60;2278.40;;;;;;5012538;28;20106;-79
2022/10/17 04:08:00;;;;;;;21.70;11.88;;;256.90;2252.80;;;;;;5038461;28;19924;-79
2022/10/17 04:10:26;;;;;;;23.98;11.40;;;256.80;2252.80;;;;;;5005498;28;20022;-80
2022/10/17 04:12:51;;;;;;;;;;;256.90;2252.80;;;;;;5009123;28;20029;-78
2022/10/17 04:15:17;;;;;;;18.27;10.60;;;256.80;2252.80;;;;;;5038495;28;19909;-79
2022/10/17 04:17:43;;;;;;;21.92;11.80;;;256.80;2252.80;;;;;;5007173;28;20030;-78
2022/10/17 04:20:09;;;;;;;17.92;11.80;;;256.80;2252.80;;;;;;5021164;28;20018;-79
2022/10/17 04:22:35;;;;;;;19.92;11.85;;;256.80;2252.80;;;;;;5004947;28;20030;-79
2022/10/17 04:25:00;;;;;;;19.73;12.63;;;256.90;2252.80;;;;;;5008475;28;20053;-80
2022/10/17 04:27:26;;;;;;;23.73;12.88;;;256.80;2252.80;;;;;;5005361;28;20495;-80
2022/10/17 04:29:52;;;;;;;;;;;256.80;2252.80;;;;;;5007462;28;20387;-80
2022/10/17 04:32:17;;;;;;;17.73;11.55;;;256.80;2252.80;;;;;;5014890;28;19963;-79
2022/10/17 04:34:43;;;;;;;;;;;256.70;2252.80;;;;;;5014161;28;20053;-77
2022/10/17 04:37:09;;;;;;;30.42;13.90;;;256.70;2252.80;;;;;;5002197;28;19909;-81
2022/10/17 04:39:34;;;;;;;21.90;13.02;;;256.70;2252.80;;;;;;5000778;28;20423;-78
2022/10/17 04:42:00;;;;;;;27.85;15.60;;;256.60;2252.80;;;;;;5008169;28;20041;-78
2022/10/17 04:44:29;;;;;;;;;;;256.70;2252.80;;;;;;5007793;28;20025;-75
2022/10/17 04:46:55;;;;;;;27.77;14.63;;;256.60;2252.80;;;;;;5018380;28;19952;-79
2022/10/17 04:49:20;;;;;;;25.98;14.32;;;256.70;2252.80;;;;;;5027122;28;20431;-78
2022/10/17 04:51:46;;;;;;;30.20;15.73;;;256.60;2252.80;;;;;;5012846;28;20030;-77
2022/10/17 04:54:12;;;;;;;26.10;15.18;;;256.60;2252.80;;;;;;5024959;28;20391;-78
2022/10/17 04:56:37;;;;;;;31.02;15.63;;;256.50;2252.80;;;;;;5001592;28;20066;-77
2022/10/17 04:59:03;;;;;;;33.83;15.38;;;256.50;2252.80;;;;;;4996294;28;20476;-81
2022/10/17 05:01:29;;;;;;;26.30;13.85;;;256.50;2252.80;;;;;;5027547;28;20024;-78
2022/10/17 05:03:54;;;;;;;25.55;14.05;;;256.60;2252.80;;;;;;5006283;28;20411;-80
2022/10/17 05:06:23;;;;;;;47.60;20.75;;;256.50;2252.80;;;;;;5002037;28;20030;-78
2022/10/17 05:08:49;;;;;;;26.30;15.77;;;256.30;2252.80;;;;;;5004757;28;20029;-80
2022/10/17 05:11:23;;;;;;;26.75;15.43;;;256.30;2252.80;;;;;;5006466;28;20014;-79
2022/10/17 05:13:54;;;;;;;29.70;15.75;;;256.50;2252.80;;;;;;5004187;28;20046;-79
2022/10/17 05:16:21;;;;;;;31.55;15.55;;;256.40;2252.80;;;;;;5027759;28;20021;-80
2022/10/17 05:18:50;;;;;;;29.90;15.35;;;256.50;2252.80;;;;;;5007409;28;20494;-78
2022/10/17 05:21:16;;;;;;;29.13;17.00;;;256.40;2252.80;;;;;;5012009;28;20025;-77
2022/10/17 05:23:42;;;;;;;28.25;15.15;;;256.90;2252.80;;;;;;5021008;28;20045;-79
2022/10/17 05:26:08;;;;;;;28.35;16.73;;;256.40;2252.80;;;;;;5004524;28;20408;-77
2022/10/17 05:28:34;;;;;;;35.97;16.20;;;256.30;2252.80;;;;;;4998633;28;20140;-80
2022/10/17 05:31:08;;;;;;;32.75;16.65;;;256.50;2252.80;;;;;;5031514;28;20021;-78
2022/10/17 05:33:35;;;;;;;24.67;14.10;;;256.40;2252.80;;;;;;5035755;28;20438;-79
2022/10/17 05:36:01;;;;;;;26.02;13.63;;;256.50;2252.80;;;;;;5035991;28;20017;-81
2022/10/17 05:38:27;;;;;;;30.75;15.15;;;256.50;2252.80;;;;;;5032627;28;20503;-77
2022/10/17 05:40:57;;;;;;;30.88;13.55;;;256.50;2252.80;;;;;;5028682;28;20549;-77
2022/10/17 05:43:23;;;;;;;24.08;14.10;;;256.60;2252.80;;;;;;5046680;28;20060;-79
2022/10/17 05:45:49;;;;;;;23.52;13.98;;;256.90;2252.80;;;;;;5021047;28;20067;-77
2022/10/17 05:48:14;;;;;;;21.83;13.10;;;256.90;2252.80;;;;;;5024408;28;20037;-77
2022/10/17 05:50:40;;;;;;;;;;;281.60;2278.40;;;;;;5018820;28;20035;-77
2022/10/17 05:53:05;;;;;;;21.63;12.07;;;281.70;2278.40;;;;;;5014846;28;19913;-79
2022/10/17 05:55:31;;;;;;;24.98;12.10;;;281.70;2278.40;;;;;;5000310;28;20385;-77
2022/10/17 05:57:59;;;;;;;19.33;11.63;;;281.90;2278.40;;;;;;5017763;28;20036;-78
2022/10/17 06:00:25;;;;;;;22.83;11.35;;;282.00;2278.40;;;;;;4998117;28;20014;-79
2022/10/17 06:02:50;;;;;;;21.58;12.52;;;282.30;2278.40;;;;;;5023976;28;20418;-79
2022/10/17 06:05:16;;;;;;;23.10;12.10;;;282.50;2278.40;;;;;;5003553;28;20057;-77
2022/10/17 06:07:42;;;;;;;16.40;11.63;;;307.30;2304.00;;;;;;5009102;28;20084;-79
2022/10/17 06:10:15;;;;;;;21.63;11.43;;;307.50;2304.00;;;;;;5023932;28;20395;-81
2022/10/17 06:12:41;;;;;;;19.85;11.23;;;307.70;2304.00;;;;;;5021784;28;20029;-84
2022/10/17 06:15:07;;;;;;;20.58;10.73;;;307.80;2304.00;;;;;;5028175;28;20029;-81
2022/10/17 06:17:34;;;;;;;19.75;10.77;;;307.80;2304.00;;;;;;5028585;28;20071;-75
2022/10/17 06:20:00;;;;;;;17.02;10.73;;;308.00;2304.00;;;;;;5029236;28;20021;-79
2022/10/17 06:22:26;;;;;;;18.35;10.43;;;308.10;2304.00;;;;;;5048106;28;20368;-79
2022/10/17 06:24:52;;;;;;;17.95;10.23;;;332.80;2329.60;;;;;;5019358;28;20071;-79
2022/10/17 06:27:19;;;;;;;16.63;9.88;;;333.00;2329.60;;;;;;5025721;28;20033;-87
2022/10/17 06:29:46;;;;;;;20.80;11.15;;;333.10;2329.60;;;;;;5031450;28;20055;-82
2022/10/17 06:32:11;;;;;;;21.23;10.88;;;333.20;2329.60;;;;;;5027564;28;20083;-83
2022/10/17 06:34:37;;;;;;;16.75;10.07;;;333.30;2329.60;;;;;;5016073;28;20026;-87
2022/10/17 06:37:03;;;;;;;18.70;10.65;;;333.40;2329.60;;;;;;5012023;28;20048;-81
2022/10/17 06:39:32;;;;;;;19.77;10.38;;;333.50;2329.60;;;;;;5021990;28;20402;-84
2022/10/17 06:41:59;;;;;;;16.02;10.23;;;333.70;2329.60;;;;;;5009858;28;20029;-84
2022/10/17 06:44:29;;;;;;;18.83;9.38;;;358.40;2329.60;;;;;;5005913;28;20025;-83
2022/10/17 06:46:55;;;;;;;24.45;10.90;;;358.50;2329.60;;;;;;5000232;28;20117;-84
2022/10/17 06:49:21;;;;;;;19.35;10.32;;;358.90;2329.60;;;;;;5003460;28;20018;-80
2022/10/17 06:51:47;;;;;;;21.35;10.75;;;358.80;2329.60;;;;;;4997955;28;21616;-84
2022/10/17 06:54:12;;;;;;;15.68;10.23;;;358.80;2329.60;;;;;;5000872;28;20022;-83
2022/10/17 06:56:38;;;;;;;20.65;10.50;;;359.00;2329.60;;;;;;5013611;28;20029;-79
2022/10/17 06:59:04;;;;;;;18.08;9.32;;;359.10;2329.60;;;;;;5026426;28;20386;-82
2022/10/17 07:01:31;;;;;;;20.88;9.45;;;359.30;2329.60;;;;;;5021941;28;20395;-75
2022/10/17 07:03:57;;;;;;;25.58;10.02;;;384.00;2329.60;;;;;;5051802;28;20076;-78
2022/10/17 07:06:23;;;;;;;14.32;9.73;;;384.20;2329.60;;;;;;5027197;28;20052;-78
2022/10/17 07:08:49;;;;;;;19.90;9.20;;;384.30;2329.60;;;;;;5006093;28;20029;-77
2022/10/17 07:11:20;;;;;;;19.05;10.07;;;384.50;2329.60;;;;;;5025305;28;20022;-75
2022/10/17 07:13:47;;;;;;;19.63;9.35;;;384.60;2329.60;;;;;;5028448;28;20033;-74
2022/10/17 07:16:14;;;;;;;15.70;8.43;;;384.80;2329.60;;;;;;5052022;28;20064;-81
2022/10/17 07:18:40;;;;;;;13.45;8.52;;;384.90;2329.60;;;;;;5051955;28;20044;-78
2022/10/17 07:21:07;;;;;;;13.40;8.23;;;409.60;2355.20;;;;;;5046100;28;20029;-74
2022/10/17 07:23:35;;;;;;;15.02;8.63;;;409.70;2355.20;;;;;;5028269;28;20026;-81
2022/10/17 07:26:06;;;;;;;13.65;7.60;;;409.80;2355.20;;;;;;5004456;28;20029;-79
2022/10/17 07:28:33;;;;;;;17.98;8.32;;;410.00;2355.20;;;;;;5022455;28;20022;-78
2022/10/17 07:31:04;;;;;;;16.23;7.75;;;410.10;2355.20;;;;;;5021660;28;20391;-75
2022/10/17 07:33:30;;;;;;;12.90;6.60;;;410.20;2355.20;;;;;;5018076;28;20564;-76
2022/10/17 07:35:59;;;;;;;17.90;6.72;;;410.30;2355.20;;;;;;5016541;28;20088;-81
2022/10/17 07:38:25;;;;;;;11.13;6.70;;;410.40;2355.20;;;;;;5018562;28;20104;-76
2022/10/17 07:40:58;;;;;;;14.55;6.82;;;410.50;2355.20;;;;;;5004707;28;20434;-82
2022/10/17 07:43:25;;;;;;;15.10;6.70;;;435.20;2355.20;;;;;;5031922;28;20083;-75
2022/10/17 07:45:52;;;;;;;13.90;7.93;;;435.20;2355.20;;;;;;5044222;28;20121;-76
2022/10/17 07:48:19;;;;;;;27.88;8.73;;;435.30;2355.20;;;;;;5043206;28;20057;-78
2022/10/17 07:50:44;;;;;;;16.33;6.70;;;435.50;2355.20;;;;;;5033227;28;20096;-76
2022/10/17 07:53:10;;;;;;;16.27;7.00;;;435.50;2355.20;;;;;;5008449;28;20482;-78
2022/10/17 07:55:37;;;;;;;11.25;6.82;;;435.50;2355.20;;;;;;5005788;28;20034;-78
2022/10/17 07:58:03;;;;;;;13.95;7.22;;;435.50;2355.20;;;;;;5028206;28;20028;-77
2022/10/17 08:00:29;;;;;;;13.45;6.35;;;435.50;2355.20;;;;;;5025709;28;20025;-79
2022/10/17 08:02:55;;;;;;;29.27;8.70;;;435.60;2355.20;;;;;;5030531;28;20041;-77
2022/10/17 08:05:20;;;;;;;11.82;6.80;;;435.70;2355.20;;;;;;5008758;28;20040;-80
2022/10/17 08:07:46;;;;;;;18.35;6.63;;;435.80;2355.20;;;;;;5014350;28;20076;-75
2022/10/17 08:10:13;;;;;;;14.57;7.15;;;435.80;2355.20;;;;;;5032826;28;20104;-76
2022/10/17 08:12:39;;;;;;;14.20;6.53;;;435.90;2355.20;;;;;;5053098;28;20025;-76
2022/10/17 08:15:06;;;;;;;12.43;6.70;;;435.90;2355.20;;;;;;5034859;28;20038;-77
2022/10/17 08:17:34;;;;;;;15.18;6.88;;;435.90;2355.20;;;;;;5030683;28;20040;-81
2022/10/17 08:20:00;;;;;;;17.48;6.55;;;435.90;2355.20;;;;;;5054616;28;20471;-77
2022/10/17 08:22:26;;;;;;;10.75;7.13;;;435.90;2355.20;;;;;;5025177;28;20242;-75
2022/10/17 08:24:52;;;;;;;15.88;6.13;;;435.60;2355.20;;;;;;5021214;28;20075;-79
2022/10/17 08:27:23;;;;;;;14.30;6.72;;;460.80;2380.80;;;;;;5054575;28;20072;-80
2022/10/17 08:29:51;;;;;;;10.00;6.22;;;460.80;2380.80;;;;;;5029745;28;20029;-75
2022/10/17 08:32:22;;;;;;;11.25;6.40;;;460.80;2252.80;;;;;;5028209;28;20394;-75
2022/10/17 08:34:48;;;;;;;13.43;6.30;;;460.80;2278.40;;;;;;5010759;28;20391;-82
2022/10/17 08:37:14;;;;;;;14.23;6.32;;;460.90;2252.80;;;;;;5012963;28;20025;-80
2022/10/17 08:46:35;;;;;;;9.48;5.72;;;461.10;2201.60;;;;;;5109718;23;20471;-76
2022/10/17 08:49:05;;;;;;;15.63;6.00;;;461.30;2201.60;;;;;;5000922;28;20088;-78
2022/10/17 08:51:35;;;;;;;11.35;6.07;;;461.40;2252.80;;;;;;5039641;28;20013;-80
2022/10/17 08:54:17;;;;;;;14.35;5.88;;;461.50;2150.40;;;;;;5032267;28;20350;-82
2022/10/17 08:56:46;;;;;;;13.90;5.70;;;461.50;2099.20;;;;;;5047261;28;20017;-77
2022/10/17 08:59:14;;;;;;;21.83;11.05;;;;;;;;;;5036026;28;20048;-76
2022/10/17 09:01:45;;;;;;;13.50;6.65;;;461.70;2099.20;;;;;;5036356;28;20382;-77
2022/10/17 09:04:35;;;;;;;10.32;6.00;;;486.50;1996.80;;;;;;5038623;28;20024;-75
2022/10/17 09:07:35;;;;;;;13.68;6.68;;;486.50;1971.20;;;;;;5016507;28;20030;-82
2022/10/17 09:10:10;;;;;;;10.48;7.03;;;486.70;1945.60;;;;;;5012534;28;20065;-76
2022/10/17 09:13:01;;;;;;;14.23;6.18;;;486.80;1945.60;;;;;;5024508;28;20044;-81
2022/10/17 09:16:09;;;;;;;15.32;7.07;;;487.00;1971.20;;;;;;5012941;28;20037;-77
2022/10/17 09:18:42;;;;;;;18.55;6.13;;;487.10;1996.80;;;;;;5003193;28;20022;-76
2022/10/17 09:21:23;;;;;;;13.88;6.65;;;487.10;1894.40;;;;;;5029523;28;20029;-79
2022/10/17 09:23:58;;;;;;;8.82;5.75;;;487.20;1817.60;;;;;;5026194;28;20032;-81
2022/10/17 09:26:24;;;;;;;14.52;5.78;;;487.20;1766.40;;;;;;5005650;28;20037;-78
2022/10/17 09:28:58;;;;;;;15.52;6.03;;;487.30;1817.60;;;;;;5050366;28;20033;-77
2022/10/17 09:31:29;;;;;;;11.32;6.25;;;512.00;1817.60;;;;;;5032700;28;20025;-81
2022/10/17 09:33:59;;;;;;;10.90;5.72;;;512.10;1817.60;;;;;;5018296;28;20038;-76
2022/10/17 09:36:29;;;;;;;11.63;6.28;;;512.10;1766.40;;;;;;5015084;28;20459;-76
2022/10/17 09:38:58;;;;;;;13.73;6.20;;;512.30;1766.40;;;;;;5013378;28;20037;-75
2022/10/17 09:41:36;;;;;;;20.88;7.75;;;512.50;1715.20;;;;;;5019780;28;20022;-81
2022/10/17 09:44:24;;;;;;;14.43;5.78;;;512.60;1766.40;;;;;;4999897;28;20094;-76
2022/10/17 09:46:56;;;;;;;9.88;6.07;;;512.70;1792.00;;;;;;5012286;28;20054;-76
2022/10/17 09:49:25;;;;;;;20.35;5.97;;;;;;;;;;5014711;28;20478;-78
2022/10/17 09:51:51;;;;;;;12.65;5.55;;;512.90;1638.40;;;;;;4998111;28;20021;-77
2022/10/17 09:54:22;;;;;;;12.25;5.85;;;537.60;1638.40;;;;;;4995229;28;20108;-76
2022/10/17 09:57:01;;;;;;;10.82;6.53;;;537.60;1638.40;;;;;;5020532;28;20470;-76
2022/10/17 09:59:33;;;;;;;15.35;6.00;;;537.80;1664.00;;;;;;5035267;28;20066;-78
2022/10/17 10:02:23;;;;;;;14.07;6.65;;;538.00;1612.80;;;;;;5039432;28;20026;-77
2022/10/17 10:04:52;;;;;;;10.43;6.38;;;538.10;1612.80;;;;;;5029866;28;20114;-77
2022/10/17 10:07:19;;;;;;;21.27;6.82;;;538.20;1587.20;;;;;;5035089;28;20025;-81
2022/10/17 10:09:47;;;;;;;16.55;6.35;;;538.30;1587.20;;;;;;5034479;28;20166;-83
2022/10/17 10:12:23;;;;;;;13.20;5.68;;;;;;;;;;5039872;28;20553;-82
2022/10/17 10:14:50;;;;;;;14.98;5.40;;;563.30;1587.20;;;;;;5039251;28;20028;-77
2022/10/17 10:17:43;;;;;;;15.20;5.75;;;563.30;1536.00;;;;;;5053160;28;20597;-82
2022/10/17 10:20:30;;;;;;;9.70;5.90;;;563.40;1484.80;;;;;;4955663;28;20110;-76
2022/10/17 10:23:17;;;;;;;14.18;5.60;;;563.60;1510.40;;;;;;4955724;28;20121;-77
2022/10/17 10:25:56;;;;;;;;;;;563.60;1484.80;;;;;;4956096;28;20035;-81
2022/10/17 10:28:34;;;;;;;17.70;6.28;;;563.90;1510.40;;;;;;4972067;28;20013;-76
2022/10/17 10:31:06;;;;;;;10.10;5.35;;;;;;;;;;4971738;28;20049;-80
2022/10/17 10:33:35;;;;;;;9.93;5.40;;;564.10;1459.20;;;;;;4971820;28;20480;-79
2022/10/17 10:36:05;;;;;;;15.98;6.72;;;564.10;1408.00;;;;;;4971676;28;20026;-82
2022/10/17 10:38:32;;;;;;;12.43;5.55;;;589.00;1433.60;;;;;;4955120;28;20027;-82
2022/10/17 10:41:06;;;;;;;15.88;5.80;;;589.00;1408.00;;;;;;4971707;28;20464;-79
2022/10/17 10:43:42;;;;;;;9.30;5.10;;;589.30;1408.00;;;;;;4971701;28;20518;-86
2022/10/17 10:46:18;;;;;;;11.43;4.97;;;589.20;1408.00;;;;;;4954886;28;20058;-76
2022/10/17 10:48:59;;;;;;;12.15;5.63;;;589.20;1382.40;;;;;;4946178;28;20560;-78
2022/10/17 10:51:33;;;;;;;11.13;5.35;;;589.30;1356.80;;;;;;4960322;28;20035;-78
2022/10/17 10:54:09;;;;;;;7.70;4.78;;;589.40;1356.80;;;;;;4964695;28;20053;-76
2022/10/17 10:56:57;;;;;;;12.80;5.20;;;589.40;1331.20;;;;;;4976399;28;20129;-82
2022/10/17 10:59:32;;;;;;;14.73;5.68;;;589.40;1331.20;;;;;;5029596;28;20021;-75
2022/10/17 11:02:19;;;;;;;9.57;5.13;;;589.70;1356.80;;;;;;5051828;28;20029;-76
2022/10/17 11:05:05;;;;;;;9.82;5.05;;;614.40;1331.20;;;;;;5034127;28;20509;-75
2022/10/17 11:07:51;;;;;;;8.23;5.05;;;589.70;1331.20;;;;;;5051624;28;20029;-74
2022/10/17 11:10:38;;;;;;;12.95;5.13;;;614.50;1305.60;;;;;;5038047;28;20072;-75
2022/10/17 11:13:17;;;;;;;7.57;5.07;;;614.60;1305.60;;;;;;5034160;28;20035;-75
2022/10/17 11:15:54;;;;;;;10.82;4.93;;;614.60;1331.20;;;;;;5030701;28;20036;-76
2022/10/17 11:18:40;;;;;;;13.20;4.90;;;614.80;1331.20;;;;;;5055999;28;20029;-81
2022/10/17 11:21:18;;;;;;;13.07;5.00;;;615.00;1305.60;;;;;;5041334;28;20410;-82
2022/10/17 11:23:53;;;;;;;11.77;5.15;;;615.20;1254.40;;;;;;5055637;28;20044;-81
2022/10/17 11:26:25;;;;;;;16.30;4.60;;;615.30;1228.80;;;;;;5037906;28;20386;-76
2022/10/17 11:28:53;;;;;;;10.05;5.55;;;615.00;1228.80;;;;;;5042301;28;20291;-75
2022/10/17 11:31:22;;;;;;;11.40;4.85;;;615.00;1228.80;;;;;;5037098;28;20028;-76
2022/10/17 11:33:56;;;;;;;9.90;5.30;;;615.00;1254.40;;;;;;5055651;28;20559;-75
2022/10/17 11:36:35;;;;;;;7.68;4.72;;;615.10;1254.40;;;;;;5032449;28;20029;-79
2022/10/17 11:39:06;;;;;;;12.10;4.65;;;615.00;1254.40;;;;;;5031006;28;20029;-81
2022/10/17 11:41:38;;;;;;;7.85;4.55;;;615.00;1228.80;;;;;;5055429;28;20013;-76
2022/10/17 11:44:34;;;;;;;12.13;4.40;;;615.10;1228.80;;;;;;5055335;28;20021;-80
2022/10/17 11:47:23;;;;;;;11.65;4.82;;;615.10;1228.80;;;;;;5037376;28;20045;-79
2022/10/17 11:49:53;;;;;;;9.48;4.50;;;615.10;1228.80;;;;;;4955070;28;20167;-81
2022/10/17 11:52:19;;;;;;;10.85;5.18;;;615.10;1228.80;;;;;;4955242;29;20039;-77
2022/10/17 11:54:51;;;;;;;14.13;4.43;;;615.10;1254.40;;;;;;4943357;29;20039;-76
2022/10/17 11:57:40;;;;;;;10.25;4.45;;;614.80;1228.80;;;;;;4938399;29;20102;-78
2022/10/17 12:00:32;;;;;;;10.05;4.70;;;615.10;1228.80;;;;;;4938563;29;20031;-79
2022/10/17 12:03:22;;;;;;;7.65;4.68;;;615.30;1228.80;;;;;;4954856;29;20023;-79
2022/10/17 12:05:53;;;;;;;7.82;4.32;;;640.10;1228.80;;;;;;4954971;28;20031;-76
2022/10/17 12:08:27;;;;;;;14.93;5.05;;;615.30;1228.80;;;;;;4938382;29;20496;-79
2022/10/17 12:10:55;;;;;;;7.95;4.65;;;615.20;1228.80;;;;;;4954704;29;20019;-75
2022/10/17 12:13:47;;;;;;;6.65;4.22;;;615.10;1203.20;;;;;;4954718;28;20039;-79
2022/10/17 12:16:35;;;;;;;7.30;3.60;;;615.00;1203.20;;;;;;4954244;28;20090;-79
2022/10/17 12:19:01;;;;;;;8.70;4.05;;;615.10;1177.60;;;;;;4925019;29;20132;-75
2022/10/17 12:21:27;;;;;;;11.50;5.35;;;615.00;1177.60;;;;;;4954720;29;20043;-80
2022/10/17 12:23:54;;;;;;;11.15;5.03;;;615.00;1177.60;;;;;;4954348;29;20090;-79
2022/10/17 12:26:27;;;;;;;11.25;4.40;;;615.10;1152.00;;;;;;4964889;28;20029;-77
2022/10/17 12:28:55;;;;;;;6.65;3.65;;;615.00;1152.00;;;;;;5054165;28;20045;-78
2022/10/17 12:31:24;;;;;;;11.25;3.95;;;615.10;1152.00;;;;;;5054173;28;20013;-79
2022/10/17 12:34:00;;;;;;;10.13;4.28;;;615.20;1152.00;;;;;;5054484;28;20042;-79
2022/10/17 12:36:26;;;;;;;19.65;4.82;;;615.10;1152.00;;;;;;5022466;28;20352;-76